Time;durP1;ratioP1;P1;durP2;ratioP2;P2;SDS_P1;SDS_P2;PMS_P1;PMS_P2;Temp;Humidity;BMP_temperature;BMP_pressure;BME280_temperature;BME280_humidity;BME280_pressure;Samples;Min_cycle;Max_cycle;Signal;HPM_P1;HPM_P2
2023/03/07 00:01:34;;;;;;;;;;;;;;;15.97;45.74;100252.63;5000145;28;1121;-51
2023/03/07 00:04:00;;;;;;;;;;;;;;;16.92;45.16;100256.09;5000078;28;1036;-52
2023/03/07 00:06:25;;;;;;;;;;;;;;;16.18;46.22;100259.63;4999691;28;1910;-54
2023/03/07 00:08:51;;;;;;;;;;;;;;;17.26;44.81;100257.97;5000232;28;1064;-52
2023/03/07 00:11:17;;;;;;;;;;;;;;;17.06;45.42;100248.81;4999662;28;1169;-53
2023/03/07 00:13:43;;;;;;;;;;;;;;;16.33;46.04;100260.66;4999697;28;1438;-51
2023/03/07 00:16:12;;;;;;;;;;;;;;;16.13;45.59;100245.13;5000077;28;1286;-52
2023/03/07 00:18:38;;;;;;;;;;;;;;;16.13;45.52;100242.38;4999773;28;1227;-53
2023/03/07 00:21:05;;;;;;;;;;;;;;;16.90;45.70;100248.16;4999712;28;1023;-53
2023/03/07 00:23:31;;;;;;;;;;;;;;;16.16;46.25;100241.81;5000151;28;1009;-53
2023/03/07 00:26:00;;;;;;;;;;;;;;;17.14;45.50;100230.06;5014486;28;1910;-52
2023/03/07 00:28:26;;;;;;;;;;;;;;;16.47;46.07;100233.38;4999235;28;1052;-52
2023/03/07 00:30:52;;;;;;;;;;;;;;;16.15;45.84;100229.22;4998441;28;1143;-58
2023/03/07 00:33:17;;;;;;;;;;;;;;;16.99;45.52;100226.38;4999749;28;1144;-58
2023/03/07 00:35:43;;;;;;;;;;;;;;;16.25;46.32;100220.91;4999671;28;1080;-59
2023/03/07 00:38:08;;;;;;;;;;;;;;;16.01;45.94;100221.59;4999888;28;1013;-51
2023/03/07 00:40:34;;;;;;;;;;;;;;;17.31;44.77;100221.38;4999583;28;1085;-53
2023/03/07 00:42:59;;;;;;;;;;;;;;;16.26;46.50;100214.31;4999127;28;1057;-54
2023/03/07 00:45:25;;;;;;;;;;;;;;;17.35;44.98;100216.91;4999430;28;1906;-52
2023/03/07 00:47:51;;;;;;;;;;;;;;;17.34;44.77;100201.56;5014674;28;1113;-54
2023/03/07 00:50:16;;;;;;;;;;;;;;;16.35;46.16;100198.88;4999320;28;1168;-52
2023/03/07 00:52:42;;;;;;;;;;;;;;;16.39;46.06;100197.19;4999335;28;1111;-51
2023/03/07 00:55:08;;;;;;;;;;;;;;;16.68;45.84;100199.16;4999081;28;1076;-53
2023/03/07 00:57:33;;;;;;;;;;;;;;;16.20;45.82;100196.25;4999441;28;1147;-56
2023/03/07 00:59:59;;;;;;;;;;;;;;;17.02;45.53;100192.81;4999470;28;1140;-54
2023/03/07 01:02:25;;;;;;;;;;;;;;;16.39;46.21;100188.16;5014262;28;1227;-54
2023/03/07 01:04:50;;;;;;;;;;;;;;;16.83;45.94;100183.66;4999227;28;1984;-55
2023/03/07 01:07:16;;;;;;;;;;;;;;;17.42;44.36;100187.97;5013929;28;1135;-55
2023/03/07 01:09:41;;;;;;;;;;;;;;;16.63;45.82;100188.22;5014219;28;1207;-54
2023/03/07 01:12:07;;;;;;;;;;;;;;;16.79;46.00;100185.31;4999024;28;1080;-54
2023/03/07 01:14:33;;;;;;;;;;;;;;;16.70;46.01;100183.22;4998559;28;1100;-55
2023/03/07 01:16:58;;;;;;;;;;;;;;;16.26;45.82;100178.66;5013828;28;1071;-54
2023/03/07 01:19:24;;;;;;;;;;;;;;;16.14;45.52;100180.94;5013229;28;1353;-55
2023/03/07 01:21:52;;;;;;;;;;;;;;;16.72;45.61;100178.25;4981415;28;1096;-55
2023/03/07 01:24:18;;;;;;;;;;;;;;;16.39;46.02;100172.50;5013886;28;1329;-55
2023/03/07 01:26:44;;;;;;;;;;;;;;;16.48;46.19;100169.97;4998201;28;1902;-54
2023/03/07 01:29:10;;;;;;;;;;;;;;;17.60;44.00;100160.84;5013687;28;1217;-55
2023/03/07 01:31:36;;;;;;;;;;;;;;;16.52;45.99;100175.69;4998592;28;1081;-55
2023/03/07 01:34:02;;;;;;;;;;;;;;;16.21;45.55;100167.72;4997844;28;1135;-54
2023/03/07 01:36:31;;;;;;;;;;;;;;;16.92;45.41;100163.53;4980848;28;1313;-55
2023/03/07 01:39:05;;;;;;;;;;;;;;;16.22;46.01;100166.63;5013547;28;1179;-54
2023/03/07 01:41:33;;;;;;;;;;;;;;;17.84;43.72;100158.00;5013362;28;1278;-50
2023/03/07 01:44:01;;;;;;;;;;;;;;;16.71;45.76;100156.59;4980141;28;1405;-51
2023/03/07 01:46:32;;;;;;;;;;;;;;;16.36;46.09;100155.81;4980470;28;1985;-53
2023/03/07 01:48:59;;;;;;;;;;;;;;;17.07;45.12;100148.81;5013183;28;1154;-53
2023/03/07 01:51:27;;;;;;;;;;;;;;;16.31;46.18;100153.09;5013400;28;1218;-52
2023/03/07 01:53:52;;;;;;;;;;;;;;;16.24;45.32;100143.28;5013420;28;1316;-53
2023/03/07 01:56:18;;;;;;;;;;;;;;;16.22;45.60;100140.00;4997510;28;1113;-53
2023/03/07 01:58:44;;;;;;;;;;;;;;;16.99;45.11;100143.16;5013272;28;1131;-51
2023/03/07 02:01:10;;;;;;;;;;;;;;;16.33;45.93;100146.22;5013146;28;1134;-54
2023/03/07 02:03:38;;;;;;;;;;;;;;;16.05;45.62;100139.59;4998060;28;1111;-52
2023/03/07 02:06:04;;;;;;;;;;;;;;;15.83;45.62;100140.00;4980373;28;1979;-52
2023/03/07 02:08:31;;;;;;;;;;;;;;;17.17;44.77;100139.66;4996789;28;1222;-55
2023/03/07 02:10:56;;;;;;;;;;;;;;;16.31;45.86;100129.22;4996310;28;1105;-52
2023/03/07 02:13:22;;;;;;;;;;;;;;;15.94;45.76;100144.31;5012480;28;1071;-51
2023/03/07 02:15:49;;;;;;;;;;;;;;;17.39;44.41;100141.84;5012743;28;1487;-53
2023/03/07 02:18:16;;;;;;;;;;;;;;;16.20;46.63;100144.97;5012790;28;1071;-52
2023/03/07 02:20:47;;;;;;;;;;;;;;;15.98;45.80;100144.59;4995716;28;2310;-46
2023/03/07 02:23:22;;;;;;;;;;;;;;;17.31;44.65;100142.50;4996384;28;1132;-53
2023/03/07 02:25:52;;;;;;;;;;;;;;;16.21;46.17;100138.34;4996036;28;1960;-51
2023/03/07 02:28:18;;;;;;;;;;;;;;;16.88;45.88;100136.91;4996604;28;1139;-49
2023/03/07 02:30:54;;;;;;;;;;;;;;;16.69;45.80;100131.34;5012839;28;1211;-52
2023/03/07 02:33:23;;;;;;;;;;;;;;;17.39;44.73;100138.25;4979665;28;1308;-53
2023/03/07 02:35:56;;;;;;;;;;;;;;;18.09;42.90;100134.00;5012517;28;1255;-50
2023/03/07 02:38:22;;;;;;;;;;;;;;;16.69;45.74;100137.66;4996027;28;1500;-53
2023/03/07 02:40:47;;;;;;;;;;;;;;;17.69;44.08;100137.03;5012359;28;1547;-52
2023/03/07 02:43:13;;;;;;;;;;;;;;;17.16;45.01;100148.19;4997418;28;1049;-51
2023/03/07 02:45:39;;;;;;;;;;;;;;;16.51;45.83;100144.69;4995439;28;1985;-53
2023/03/07 02:48:04;;;;;;;;;;;;;;;16.34;45.23;100131.41;4997187;28;1207;-50
2023/03/07 02:50:30;;;;;;;;;;;;;;;16.54;45.87;100140.56;5012481;28;1135;-51
2023/03/07 02:52:56;;;;;;;;;;;;;;;16.60;45.61;100142.13;4996699;28;1012;-54
2023/03/07 02:55:22;;;;;;;;;;;;;;;16.61;46.11;100146.53;5012407;28;1294;-52
2023/03/07 02:57:54;;;;;;;;;;;;;;;17.84;43.57;100126.94;5011797;28;1152;-54
2023/03/07 03:00:20;;;;;;;;;;;;;;;16.59;46.13;100133.09;5012350;28;1118;-54
2023/03/07 03:02:46;;;;;;;;;;;;;;;16.42;45.70;100132.69;4997148;28;1184;-51
2023/03/07 03:05:12;;;;;;;;;;;;;;;16.24;45.20;100128.72;4997039;28;1902;-53
2023/03/07 03:07:37;;;;;;;;;;;;;;;16.68;45.64;100125.03;4997088;28;1132;-55
2023/03/07 03:10:03;;;;;;;;;;;;;;;16.19;45.90;100124.09;5011971;28;1229;-55
2023/03/07 03:12:31;;;;;;;;;;;;;;;17.94;43.66;100115.81;5012002;28;1246;-54
2023/03/07 03:14:57;;;;;;;;;;;;;;;16.73;45.75;100122.25;5012202;28;1130;-53
2023/03/07 03:17:22;;;;;;;;;;;;;;;16.47;45.72;100118.13;4997202;28;1168;-53
2023/03/07 03:19:48;;;;;;;;;;;;;;;16.76;45.80;100121.66;5011585;28;1080;-54
2023/03/07 03:22:13;;;;;;;;;;;;;;;16.69;45.99;100121.19;4996595;28;883;-53
2023/03/07 03:24:43;;;;;;;;;;;;;;;16.25;45.93;100116.66;5012118;28;1171;-52
2023/03/07 03:27:12;;;;;;;;;;;;;;;16.14;45.61;100110.44;5011693;28;1913;-52
2023/03/07 03:29:38;;;;;;;;;;;;;;;17.25;44.83;100108.78;5011386;28;1194;-52
2023/03/07 03:32:05;;;;;;;;;;;;;;;16.30;46.02;100108.38;5011945;28;1163;-52
2023/03/07 03:34:31;;;;;;;;;;;;;;;17.44;44.91;100117.03;5011820;28;1357;-53
2023/03/07 03:36:57;;;;;;;;;;;;;;;16.92;45.53;100124.28;4996747;28;1104;-51
2023/03/07 03:39:22;;;;;;;;;;;;;;;16.38;45.77;100109.69;4996961;28;1116;-52
2023/03/07 03:41:53;;;;;;;;;;;;;;;16.60;46.24;100111.94;5012020;28;1220;-51
2023/03/07 03:44:21;;;;;;;;;;;;;;;16.67;45.96;100117.09;5016357;28;2238;-53
2023/03/07 03:46:47;;;;;;;;;;;;;;;16.24;45.86;100104.88;4996655;28;1910;-52
2023/03/07 03:49:15;;;;;;;;;;;;;;;16.28;45.76;100107.03;5011837;28;1314;-51
2023/03/07 03:51:42;;;;;;;;;;;;;;;16.52;45.96;100102.44;5011876;28;1312;-53
2023/03/07 03:54:08;;;;;;;;;;;;;;;16.66;46.07;100116.28;5011766;28;1171;-54
2023/03/07 03:56:35;;;;;;;;;;;;;;;18.23;42.61;100084.53;5010899;28;1091;-54
2023/03/07 03:59:01;;;;;;;;;;;;;;;16.68;45.54;100097.59;4996160;28;1065;-54
2023/03/07 04:01:27;;;;;;;;;;;;;;;16.40;45.70;100096.50;5011566;28;1099;-54
2023/03/07 04:03:52;;;;;;;;;;;;;;;17.26;44.90;100090.34;5011850;28;1277;-55
2023/03/07 04:06:29;;;;;;;;;;;;;;;16.35;46.13;100086.38;5015034;28;2007;-54
2023/03/07 04:08:55;;;;;;;;;;;;;;;16.08;45.85;100081.41;4982353;28;1350;-54
2023/03/07 04:11:21;;;;;;;;;;;;;;;17.10;45.17;100082.31;4982447;28;1103;-53
2023/03/07 04:13:47;;;;;;;;;;;;;;;16.50;45.99;100079.94;4982685;28;1232;-54
2023/03/07 04:16:14;;;;;;;;;;;;;;;16.11;45.89;100077.28;5015128;28;1110;-49
2023/03/07 04:18:39;;;;;;;;;;;;;;;17.20;44.86;100080.53;4999488;28;1116;-52
2023/03/07 04:21:05;;;;;;;;;;;;;;;16.24;46.24;100082.09;4999543;28;1076;-48
2023/03/07 04:23:31;;;;;;;;;;;;;;;16.03;46.03;100076.81;5000188;28;1056;-51
2023/03/07 04:25:58;;;;;;;;;;;;;;;16.70;45.67;100083.56;5014608;28;1910;-53
2023/03/07 04:28:24;;;;;;;;;;;;;;;16.33;45.90;100085.84;4982477;28;1244;-52
2023/03/07 04:30:52;;;;;;;;;;;;;;;17.45;44.58;100080.19;4999277;28;1162;-50
2023/03/07 04:33:18;;;;;;;;;;;;;;;17.85;43.28;100084.56;5014643;28;1171;-48
2023/03/07 04:35:44;;;;;;;;;;;;;;;16.67;45.47;100093.19;4999826;28;1109;-50
2023/03/07 04:38:11;;;;;;;;;;;;;;;16.40;45.29;100091.81;5014537;28;1391;-48
2023/03/07 04:40:37;;;;;;;;;;;;;;;17.39;44.55;100097.88;4982140;28;1117;-52
2023/03/07 04:43:04;;;;;;;;;;;;;;;16.43;46.04;100106.91;5014315;28;1301;-51
2023/03/07 04:45:30;;;;;;;;;;;;;;;16.14;45.50;100091.22;4998929;28;1915;-49
2023/03/07 04:47:56;;;;;;;;;;;;;;;15.97;45.34;100094.38;5014712;28;1120;-50
2023/03/07 04:50:21;;;;;;;;;;;;;;;15.87;44.80;100095.28;4998881;28;1451;-56
2023/03/07 04:52:49;;;;;;;;;;;;;;;17.04;45.27;100094.47;4999444;28;953;-43
2023/03/07 04:55:15;;;;;;;;;;;;;;;16.47;46.35;100096.16;5014961;28;1159;-54
2023/03/07 04:57:41;;;;;;;;;;;;;;;15.95;46.58;100090.28;4999419;28;1167;-50
2023/03/07 05:00:10;;;;;;;;;;;;;;;17.36;44.83;100103.13;4999317;28;1184;-50
2023/03/07 05:02:36;;;;;;;;;;;;;;;16.32;46.23;100099.88;4998494;28;1037;-50
2023/03/07 05:05:03;;;;;;;;;;;;;;;16.49;46.47;100111.22;5014067;28;1910;-52
2023/03/07 05:07:29;;;;;;;;;;;;;;;16.87;45.66;100099.56;5014125;28;1115;-50
2023/03/07 05:09:55;;;;;;;;;;;;;;;16.21;46.24;100107.38;5017689;28;1219;-51
2023/03/07 05:12:21;;;;;;;;;;;;;;;16.99;45.60;100112.94;5013619;28;1151;-52
2023/03/07 05:14:46;;;;;;;;;;;;;;;16.42;46.35;100106.09;5013752;28;1511;-53
2023/03/07 05:17:12;;;;;;;;;;;;;;;16.08;45.96;100109.66;4997883;28;1055;-53
2023/03/07 05:19:38;;;;;;;;;;;;;;;17.01;45.46;100100.56;4986828;28;1231;-50
2023/03/07 05:22:04;;;;;;;;;;;;;;;16.31;46.25;100101.78;5013327;28;1260;-54
2023/03/07 05:24:30;;;;;;;;;;;;;;;16.31;46.33;100120.16;4981299;28;1336;-51
2023/03/07 05:26:56;;;;;;;;;;;;;;;17.31;44.62;100115.03;4981189;28;1903;-54
2023/03/07 05:29:21;;;;;;;;;;;;;;;16.40;45.84;100121.19;4999073;28;1036;-55
2023/03/07 05:31:47;;;;;;;;;;;;;;;18.04;43.41;100125.84;4998652;28;1092;-55
2023/03/07 05:34:14;;;;;;;;;;;;;;;17.10;44.95;100125.44;5013410;28;1395;-51
2023/03/07 05:36:40;;;;;;;;;;;;;;;16.43;45.86;100128.84;4980949;28;1234;-51
2023/03/07 05:39:07;;;;;;;;;;;;;;;16.19;45.54;100132.34;5013419;28;1253;-49
2023/03/07 05:41:34;;;;;;;;;;;;;;;16.91;45.18;100136.38;5013355;28;1464;-52
2023/03/07 05:44:00;;;;;;;;;;;;;;;16.30;45.80;100141.31;4980905;28;1460;-52
2023/03/07 05:46:26;;;;;;;;;;;;;;;16.02;46.00;100140.97;4980677;28;1954;-48
2023/03/07 05:48:51;;;;;;;;;;;;;;;17.06;44.95;100138.94;4980689;28;1200;-55
2023/03/07 05:51:17;;;;;;;;;;;;;;;16.37;45.84;100147.28;4980764;28;1104;-53
2023/03/07 05:53:45;;;;;;;;;;;;;;;16.10;45.88;100136.78;4980532;28;2067;-52
2023/03/07 05:56:11;;;;;;;;;;;;;;;17.10;45.08;100147.41;5013185;28;1255;-54
2023/03/07 05:58:37;;;;;;;;;;;;;;;16.56;45.81;100143.81;5018481;28;1564;-53
2023/03/07 06:01:03;;;;;;;;;;;;;;;16.19;45.98;100148.78;4982324;28;1275;-54
2023/03/07 06:03:29;;;;;;;;;;;;;;;17.53;44.37;100146.59;5012439;28;1522;-53
2023/03/07 06:05:55;;;;;;;;;;;;;;;16.45;46.12;100142.28;5001431;28;1967;-53
2023/03/07 06:08:20;;;;;;;;;;;;;;;17.09;45.18;100146.59;4997982;28;1308;-52
2023/03/07 06:10:50;;;;;;;;;;;;;;;17.39;44.54;100146.50;5003530;28;986;-52
2023/03/07 06:13:17;;;;;;;;;;;;;;;17.19;45.01;100144.84;5025087;28;1294;-53
2023/03/07 06:15:44;;;;;;;;;;;;;;;17.33;44.43;100150.44;4997724;28;1022;-52
2023/03/07 06:18:13;;;;;;;;;;;;;;;16.85;45.41;100146.56;5008221;28;1355;-53
2023/03/07 06:20:38;;;;;;;;;;;;;;;16.69;45.83;100156.03;4997740;28;1061;-55
2023/03/07 06:23:04;;;;;;;;;;;;;;;16.46;46.37;100152.97;4979371;28;1274;-51
2023/03/07 06:25:29;;;;;;;;;;;;;;;16.29;46.66;100150.63;5003347;28;1977;-50
2023/03/07 06:27:59;;;;;;;;;;;;;;;16.18;46.87;100155.38;4996544;28;960;-53
2023/03/07 06:30:27;;;;;;;;;;;;;;;15.95;47.11;100154.19;4978235;28;1140;-52
2023/03/07 06:32:53;;;;;;;;;;;;;;;15.84;47.68;100160.84;4995285;28;1122;-51
2023/03/07 06:35:19;;;;;;;;;;;;;;;15.73;47.93;100169.06;4996387;28;1041;-51
2023/03/07 06:37:49;;;;;;;;;;;;;;;15.64;48.01;100164.47;5011095;28;1347;-53
2023/03/07 06:40:14;;;;;;;;;;;;;;;15.56;48.31;100161.22;5012323;28;1324;-53
2023/03/07 06:42:40;;;;;;;;;;;;;;;15.45;48.44;100158.81;5012671;28;1221;-51
2023/03/07 06:45:07;;;;;;;;;;;;;;;15.36;48.56;100167.63;5012182;28;1972;-53
2023/03/07 06:47:33;;;;;;;;;;;;;;;15.29;48.89;100169.00;5012226;28;1131;-51
2023/03/07 06:50:01;;;;;;;;;;;;;;;15.24;48.63;100169.84;5012306;28;1364;-52
2023/03/07 06:52:28;;;;;;;;;;;;;;;15.90;47.19;100168.72;5011803;28;1194;-51
2023/03/07 06:54:54;;;;;;;;;;;;;;;17.27;43.98;100157.94;4979385;28;1410;-53
2023/03/07 06:57:19;;;;;;;;;;;;;;;16.45;45.77;100159.56;5012098;28;1414;-52
2023/03/07 06:59:45;;;;;;;;;;;;;;;15.90;46.92;100160.50;5011946;28;1119;-54
2023/03/07 07:02:12;;;;;;;;;;;;;;;15.70;47.72;100169.66;4996308;28;1251;-52
2023/03/07 07:04:37;;;;;;;;;;;;;;;15.53;47.83;100169.19;4979174;28;1330;-53
2023/03/07 07:07:03;;;;;;;;;;;;;;;16.07;46.87;100173.84;4996728;28;1914;-53
2023/03/07 07:09:29;;;;;;;;;;;;;;;17.44;43.28;100168.44;4996882;28;1117;-51
2023/03/07 07:11:55;;;;;;;;;;;;;;;16.42;45.73;100171.09;5009282;28;1112;-54
2023/03/07 07:14:22;;;;;;;;;;;;;;;16.02;46.91;100167.56;5012130;28;1206;-54
2023/03/07 07:16:48;;;;;;;;;;;;;;;15.73;47.47;100166.34;5012147;28;1116;-51
2023/03/07 07:19:13;;;;;;;;;;;;;;;15.60;47.73;100172.44;4997116;28;1157;-52
2023/03/07 07:21:40;;;;;;;;;;;;;;;15.47;48.26;100173.84;5012004;28;1147;-54
2023/03/07 07:24:05;;;;;;;;;;;;;;;15.63;47.88;100171.88;5010870;28;1331;-53
2023/03/07 07:26:31;;;;;;;;;;;;;;;17.15;43.97;100172.06;4996942;28;1975;-53
2023/03/07 07:28:58;;;;;;;;;;;;;;;16.25;46.15;100172.31;5011949;28;1325;-54
2023/03/07 07:31:24;;;;;;;;;;;;;;;15.86;47.26;100167.66;4996675;28;1298;-52
2023/03/07 07:33:50;;;;;;;;;;;;;;;15.65;47.46;100166.13;4996495;28;1092;-52
2023/03/07 07:36:17;;;;;;;;;;;;;;;15.50;47.82;100164.25;5011680;28;1211;-54
2023/03/07 07:38:42;;;;;;;;;;;;;;;15.37;48.26;100158.28;5012069;28;1103;-53
2023/03/07 07:41:08;;;;;;;;;;;;;;;16.96;44.73;100169.28;5000423;28;1036;-53
2023/03/07 07:43:34;;;;;;;;;;;;;;;16.57;45.10;100157.25;5015638;28;1203;-54
2023/03/07 07:46:23;;;;;;;;;;;;;;;15.96;47.12;100163.22;5000084;28;1960;-51
2023/03/07 07:48:49;;;;;;;;;;;;;;;15.71;47.66;100160.34;5015758;28;1303;-53
2023/03/07 07:51:15;;;;;;;;;;;;;;;15.52;48.04;100159.34;5014907;28;1380;-52
2023/03/07 07:53:41;;;;;;;;;;;;;;;16.02;47.00;100171.13;5014899;28;1294;-52
2023/03/07 07:56:06;;;;;;;;;;;;;;;17.38;43.39;100158.63;5000125;28;1068;-50
2023/03/07 07:58:32;;;;;;;;;;;;;;;16.35;45.93;100160.47;4982582;28;1207;-51
2023/03/07 08:01:00;;;;;;;;;;;;;;;15.92;46.79;100162.97;4983006;28;1265;-53
2023/03/07 08:03:25;;;;;;;;;;;;;;;15.78;47.16;100156.44;5000318;28;1137;-51
2023/03/07 08:05:51;;;;;;;;;;;;;;;15.56;47.99;100158.47;4999381;28;1989;-54
2023/03/07 08:08:17;;;;;;;;;;;;;;;15.44;48.09;100158.00;5000564;28;1342;-54
2023/03/07 08:10:44;;;;;;;;;;;;;;;15.32;48.49;100154.75;4999312;28;1123;-51
2023/03/07 08:13:13;;;;;;;;;;;;;;;16.57;45.54;100150.97;5000166;28;1076;-50
2023/03/07 08:15:39;;;;;;;;;;;;;;;17.03;44.12;100153.25;4998903;28;1310;-53
2023/03/07 08:18:04;;;;;;;;;;;;;;;16.07;46.26;100146.44;4999775;28;1305;-53
2023/03/07 08:20:30;;;;;;;;;;;;;;;15.78;47.11;100143.56;4999641;28;1068;-53
2023/03/07 08:22:55;;;;;;;;;;;;;;;15.60;47.70;100145.03;4999314;28;1036;-52
2023/03/07 08:25:22;;;;;;;;;;;;;;;15.48;47.96;100141.81;4999613;28;1906;-46
2023/03/07 08:27:53;;;;;;;;;;;;;;;16.51;45.46;100135.63;4999604;28;1049;-54
2023/03/07 08:30:28;;;;;;;;;;;;;;;16.91;44.34;100139.94;4999470;28;1089;-51
2023/03/07 08:32:54;;;;;;;;;;;;;;;16.03;46.67;100142.63;4999762;28;1250;-52
2023/03/07 08:35:20;;;;;;;;;;;;;;;15.81;47.17;100133.97;4999018;28;1440;-52
2023/03/07 08:37:47;;;;;;;;;;;;;;;15.64;47.66;100135.16;4999557;28;1258;-54
2023/03/07 08:40:14;;;;;;;;;;;;;;;15.47;47.90;100134.69;4999795;28;1166;-51
2023/03/07 08:42:40;;;;;;;;;;;;;;;15.45;48.17;100137.72;4999238;28;1159;-53
2023/03/07 08:45:06;;;;;;;;;;;;;;;17.04;44.39;100126.59;4998994;28;1906;-51
2023/03/07 08:47:31;;;;;;;;;;;;;;;16.51;45.49;100138.38;4998600;28;1117;-53
2023/03/07 08:49:57;;;;;;;;;;;;;;;15.96;46.82;100130.31;4998590;28;1310;-52
2023/03/07 08:52:22;;;;;;;;;;;;;;;15.70;47.32;100125.78;4997973;28;1302;-48
2023/03/07 08:54:48;;;;;;;;;;;;;;;15.52;47.79;100134.66;4998977;28;1274;-53
2023/03/07 08:57:14;;;;;;;;;;;;;;;15.97;46.99;100121.00;4998618;28;1349;-52
2023/03/07 08:59:39;;;;;;;;;;;;;;;17.28;43.71;100118.38;4998482;28;1267;-54
2023/03/07 09:02:05;;;;;;;;;;;;;;;16.31;45.83;100115.50;4999316;28;1204;-53
2023/03/07 09:04:30;;;;;;;;;;;;;;;15.89;46.88;100122.41;4998501;28;1194;-53
2023/03/07 09:06:57;;;;;;;;;;;;;;;15.67;47.79;100123.63;4998645;28;1906;-53
2023/03/07 09:09:23;;;;;;;;;;;;;;;15.50;48.12;100110.28;4998753;28;1152;-53
2023/03/07 09:11:49;;;;;;;;;;;;;;;15.39;48.25;100109.53;4998202;28;1298;-52
2023/03/07 09:14:14;;;;;;;;;;;;;;;15.30;48.37;100113.13;4998438;28;1125;-53
2023/03/07 09:16:40;;;;;;;;;;;;;;;16.56;45.39;100111.72;4998688;28;1076;-54
2023/03/07 09:19:05;;;;;;;;;;;;;;;17.25;43.71;100099.69;4998954;28;1156;-53
2023/03/07 09:21:31;;;;;;;;;;;;;;;16.21;46.37;100099.13;4998221;28;1044;-53
2023/03/07 09:23:57;;;;;;;;;;;;;;;15.88;47.19;100102.41;4998486;28;1113;-53
2023/03/07 09:26:22;;;;;;;;;;;;;;;15.69;47.65;100101.41;4999008;28;1918;-50
2023/03/07 09:28:48;;;;;;;;;;;;;;;15.53;48.03;100100.69;4998643;28;1068;-53
2023/03/07 09:31:14;;;;;;;;;;;;;;;15.42;48.17;100104.56;4998497;28;1171;-53
2023/03/07 09:33:40;;;;;;;;;;;;;;;16.06;46.66;100098.16;4998603;28;1152;-53
2023/03/07 09:36:06;;;;;;;;;;;;;;;17.10;44.33;100092.47;4998569;28;1193;-52
2023/03/07 09:38:31;;;;;;;;;;;;;;;16.15;46.66;100100.28;4998317;28;1068;-52
2023/03/07 09:41:00;;;;;;;;;;;;;;;15.77;47.41;100094.50;4998239;28;1004;-47
2023/03/07 09:43:26;;;;;;;;;;;;;;;15.66;47.70;100100.06;4998304;28;1188;-53
2023/03/07 09:46:39;;;;;;;;;;;;;;;15.45;48.59;100091.13;5009035;28;1969;-53
2023/03/07 09:49:10;;;;;;;;;;;;;;;15.37;48.58;100089.78;5013152;28;894;-53
2023/03/07 09:51:36;;;;;;;;;;;;;;;16.18;46.60;100083.25;4998404;28;1219;-53
2023/03/07 09:54:03;;;;;;;;;;;;;;;17.21;44.21;100090.44;4998205;28;1046;-54
2023/03/07 09:56:31;;;;;;;;;;;;;;;16.17;46.56;100081.59;5012888;28;1076;-54
2023/03/07 09:58:59;;;;;;;;;;;;;;;15.82;47.45;100078.06;5013260;28;1123;-51
2023/03/07 10:01:25;;;;;;;;;;;;;;;15.76;47.92;100074.50;5012795;28;1231;-49
2023/03/07 10:04:04;;;;;;;;;;;;;;;15.68;48.01;100064.97;5012532;28;1297;-56
2023/03/07 10:06:34;;;;;;;;;;;;;;;15.62;48.17;100066.09;4997568;28;1914;-52
2023/03/07 10:08:59;;;;;;;;;;;;;;;15.46;48.58;100059.06;4998253;28;1151;-54
2023/03/07 10:11:37;;;;;;;;;;;;;;;16.46;46.23;100061.59;4996927;28;1056;-53
2023/03/07 10:14:05;;;;;;;;;;;;;;;16.62;45.58;100060.34;4997810;28;1097;-53
2023/03/07 10:16:31;;;;;;;;;;;;;;;15.92;47.27;100050.53;4997776;28;1026;-53
2023/03/07 10:19:02;;;;;;;;;;;;;;;15.72;48.15;100054.25;4997753;28;1104;-50
2023/03/07 10:21:43;;;;;;;;;;;;;;;15.51;48.59;100048.09;5011867;28;1411;-54
2023/03/07 10:24:35;;;;;;;;;;;;;;;16.92;45.04;100041.88;4995880;28;1306;-53
2023/03/07 10:27:03;;;;;;;;;;;;;;;16.23;46.72;100042.88;4974180;28;1914;-53
2023/03/07 10:29:38;;;;;;;;;;;;;;;15.87;47.69;100040.44;4997277;28;1306;-52
2023/03/07 10:32:12;;;;;;;;;;;;;;;15.68;47.91;100037.56;4997636;28;1266;-55
2023/03/07 10:34:38;;;;;;;;;;;;;;;15.53;48.44;100034.94;4997122;28;1021;-50
2023/03/07 10:37:10;;;;;;;;;;;;;;;15.37;48.83;100036.94;4997298;28;889;-49
2023/03/07 10:39:40;;;;;;;;;;;;;;;15.64;48.20;100021.97;5012283;28;1429;-52
2023/03/07 10:42:07;;;;;;;;;;;;;;;17.19;44.29;100023.97;4996469;28;1344;-51
2023/03/07 10:44:33;;;;;;;;;;;;;;;16.52;45.98;100022.00;5011576;28;1389;-51
2023/03/07 10:46:58;;;;;;;;;;;;;;;16.02;47.03;100030.44;5012408;28;1902;-51
2023/03/07 10:49:25;;;;;;;;;;;;;;;15.77;47.70;100020.47;4997094;28;870;-48
2023/03/07 10:51:59;;;;;;;;;;;;;;;15.57;48.34;100020.38;5012398;28;1144;-50
2023/03/07 10:54:32;;;;;;;;;;;;;;;15.48;48.47;100013.84;4997391;28;1110;-47
2023/03/07 10:57:11;;;;;;;;;;;;;;;16.05;47.22;100008.75;4997161;28;1049;-50
2023/03/07 10:59:38;;;;;;;;;;;;;;;17.06;44.37;100009.03;4997106;28;1025;-47
2023/03/07 11:02:17;;;;;;;;;;;;;;;16.13;46.59;99998.25;4987993;28;1410;-47
2023/03/07 11:04:43;;;;;;;;;;;;;;;15.82;47.78;100004.03;5012117;28;1041;-45
2023/03/07 11:07:22;;;;;;;;;;;;;;;15.62;47.96;99997.59;4997178;28;1973;-49
2023/03/07 11:09:47;;;;;;;;;;;;;;;15.45;48.42;99999.91;5011863;28;1025;-55
2023/03/07 11:12:17;;;;;;;;;;;;;;;15.42;48.57;100000.47;4996954;28;1103;-49
2023/03/07 11:14:53;;;;;;;;;;;;;;;16.96;44.81;99993.50;5000220;28;1136;-52
2023/03/07 11:17:23;;;;;;;;;;;;;;;16.73;45.21;99984.16;5002752;28;1096;-51
2023/03/07 11:19:52;;;;;;;;;;;;;;;16.05;47.24;99997.78;5003184;28;1317;-50
2023/03/07 11:22:34;;;;;;;;;;;;;;;15.78;47.85;99991.97;5003084;28;1250;-49
2023/03/07 11:25:01;;;;;;;;;;;;;;;15.61;48.10;99986.91;5003054;28;1429;-50
2023/03/07 11:27:33;;;;;;;;;;;;;;;15.45;48.59;99980.75;5018402;28;1906;-51
2023/03/07 11:30:05;;;;;;;;;;;;;;;15.48;48.74;99978.22;5003248;28;1079;-50
2023/03/07 11:32:31;;;;;;;;;;;;;;;17.16;44.55;99975.09;5017822;28;1403;-52
2023/03/07 11:35:03;;;;;;;;;;;;;;;16.40;46.40;99975.78;5017940;28;1441;-48
2023/03/07 11:37:38;;;;;;;;;;;;;;;15.91;47.54;99963.94;4983322;28;1303;-49
2023/03/07 11:40:10;;;;;;;;;;;;;;;15.68;48.11;99963.56;5002592;28;1338;-52
2023/03/07 11:42:37;;;;;;;;;;;;;;;15.54;48.51;99960.66;5000889;28;1442;-46
2023/03/07 11:45:15;;;;;;;;;;;;;;;15.38;48.66;99959.94;5017702;28;1489;-47
2023/03/07 11:47:45;;;;;;;;;;;;;;;16.71;45.65;99954.25;5002543;28;1297;-48
2023/03/07 11:50:18;;;;;;;;;;;;;;;16.76;45.23;99951.44;5017079;28;1095;-47
2023/03/07 11:52:51;;;;;;;;;;;;;;;16.03;47.30;99953.41;5018226;28;1388;-50
2023/03/07 11:55:20;;;;;;;;;;;;;;;15.75;47.81;99949.50;5017991;28;1128;-49
2023/03/07 11:57:52;;;;;;;;;;;;;;;15.60;48.17;99953.22;5002580;28;1293;-49
2023/03/07 12:00:23;;;;;;;;;;;;;;;15.48;48.79;99950.03;4999917;28;1389;-47
2023/03/07 12:03:07;;;;;;;;;;;;;;;15.42;48.71;99942.94;5002811;28;1377;-46
2023/03/07 12:05:36;;;;;;;;;;;;;;;17.08;44.85;99938.13;5002288;28;1915;-49
2023/03/07 12:08:05;;;;;;;;;;;;;;;16.25;46.61;99928.19;5002596;28;1270;-50
2023/03/07 12:10:37;;;;;;;;;;;;;;;15.85;47.59;99930.28;5002571;28;1337;-46
2023/03/07 12:13:21;;;;;;;;;;;;;;;15.62;48.16;99934.56;5000483;28;1333;-47
2023/03/07 12:15:59;;;;;;;;;;;;;;;15.54;48.73;99926.94;5002733;28;1290;-49
2023/03/07 12:18:55;;;;;;;;;;;;;;;15.36;48.87;99928.47;5003065;28;1294;-49
2023/03/07 12:21:29;;;;;;;;;;;;;;;16.92;45.31;99929.28;4950358;28;1340;-50
2023/03/07 12:24:16;;;;;;;;;;;;;;;16.40;46.32;99921.69;5002547;28;1329;-51
2023/03/07 12:26:57;;;;;;;;;;;;;;;15.89;47.75;99927.75;4999972;28;1895;-52
2023/03/07 12:29:32;;;;;;;;;;;;;;;15.66;48.34;99932.88;4997669;28;1278;-53
2023/03/07 12:31:59;;;;;;;;;;;;;;;15.51;48.52;99927.53;4999571;28;1270;-50
2023/03/07 12:34:33;;;;;;;;;;;;;;;15.60;48.74;99931.28;4999530;28;1306;-49
2023/03/07 12:37:06;;;;;;;;;;;;;;;17.21;44.42;99928.34;5014140;28;1353;-48
2023/03/07 12:39:31;;;;;;;;;;;;;;;16.38;46.66;99929.41;5014544;28;1263;-51
2023/03/07 12:42:12;;;;;;;;;;;;;;;15.90;47.81;99924.72;4999264;28;1100;-51
2023/03/07 12:44:38;;;;;;;;;;;;;;;15.68;48.41;99927.94;4996054;28;1545;-52
2023/03/07 12:47:04;;;;;;;;;;;;;;;15.53;48.75;99926.13;4998188;28;1918;-52
2023/03/07 12:49:48;;;;;;;;;;;;;;;15.46;48.82;99925.66;4998025;28;1335;-52
2023/03/07 12:52:15;;;;;;;;;;;;;;;17.13;45.02;99916.06;4998120;28;1263;-53